»·PEaware :: N732SG KEMT-KSBA

N732SG :: KEMT-KSBA

FLIGHT INFORMATION

Flight Status: Arrived
Operator: Privately registered:
United States
More flights under this callsign
Pilot: Scott G. (88)
Aircraft: CESSNA 172 SKYHAWK
(C172)
More flights by this aircraft type
Origin: KEMT El Monte
United States
Destination: KSBA Santa Barbara Mun
United States
More flights between these airports :: More routes between these airports
Route: FIM DCT
File this flight plan on PilotEdge
Remarks:
Altitude:
(Current/Filed)
6,500ft
Speed:
(Current/Filed)
120kts
Departed: 31-Jan-17 01:01 PM
Arrived: 31-Jan-17 01:55 PM
Distance/Time
Traveled:
92nm/0:54
Distance/Time
To Go:
Arrived

Flight Plot

Page will automatically refresh every two minutes.

Flight plan parsing failed; only flown route is shown


Map Options




Map Legend


Flown Route
Filed Route
Departure Airport
Arrival Airport
Navaid (VOR, NDB)
Fix

Horizontal Profiles

Position Reports

Time Latitude Longitude Heading Altitude Ground
Speed
31-Jan-17 12:45 34.082707 -118.035642 196 285ft 0kts
31-Jan-17 12:51 34.082707 -118.035642 196 285ft 0kts
31-Jan-17 12:52 34.082707 -118.035642 195 285ft 0kts
31-Jan-17 12:53 34.082707 -118.035642 195 285ft 0kts
31-Jan-17 12:54 34.082707 -118.035642 195 285ft 0kts
31-Jan-17 12:55 34.082707 -118.035642 195 285ft 0kts
31-Jan-17 12:56 34.082672 -118.035657 204 285ft 2kts
31-Jan-17 12:57 34.082635 -118.035847 285 284ft 0kts
31-Jan-17 12:58 34.085710 -118.034366 26 287ft 21kts
31-Jan-17 12:59 34.090734 -118.031599 306 296ft 4kts
31-Jan-17 13:00 34.090739 -118.031608 295 296ft 0kts
31-Jan-17 13:01 34.087756 -118.033894 203 310ft 66kts
31-Jan-17 13:02 34.068167 -118.045945 235 1224ft 87kts
31-Jan-17 13:03 34.075396 -118.070376 303 2198ft 86kts
31-Jan-17 13:04 34.088793 -118.096005 301 3035ft 98kts
31-Jan-17 13:05 34.102280 -118.122650 301 3990ft 87kts
31-Jan-17 13:06 34.112779 -118.148715 291 4782ft 97kts
31-Jan-17 13:07 34.123201 -118.180932 289 5287ft 105kts
31-Jan-17 13:08 34.132489 -118.209100 289 5716ft 102kts
31-Jan-17 13:09 34.142566 -118.239442 289 6193ft 101kts
31-Jan-17 13:10 34.153067 -118.270984 289 6540ft 113kts
31-Jan-17 13:11 34.165158 -118.307151 289 6515ft 116kts
31-Jan-17 13:12 34.177058 -118.342795 290 6514ft 115kts
31-Jan-17 13:13 34.188869 -118.378176 290 6515ft 115kts
31-Jan-17 13:14 34.200862 -118.414065 290 6515ft 116kts
31-Jan-17 13:15 34.212863 -118.450183 293 6516ft 115kts
31-Jan-17 13:16 34.224447 -118.484447 292 6515ft 114kts
31-Jan-17 13:17 34.235033 -118.516249 292 6515ft 113kts
31-Jan-17 13:18 34.248273 -118.550467 290 6515ft 114kts
31-Jan-17 13:19 34.256806 -118.587317 287 6516ft 114kts
31-Jan-17 13:20 34.264787 -118.624033 272 6515ft 113kts
31-Jan-17 13:21 34.267536 -118.656440 276 6514ft 113kts
31-Jan-17 13:22 34.271946 -118.693818 278 6512ft 112kts
31-Jan-17 13:23 34.275924 -118.724470 278 6510ft 112kts
31-Jan-17 13:24 34.280894 -118.761674 278 6508ft 112kts
31-Jan-17 13:25 34.285915 -118.798850 277 6506ft 112kts
31-Jan-17 13:26 34.290935 -118.836058 277 6506ft 112kts
31-Jan-17 13:27 34.295953 -118.873227 277 6506ft 112kts
31-Jan-17 13:28 34.301010 -118.910537 276 6506ft 112kts
31-Jan-17 13:29 34.306061 -118.948011 277 6506ft 113kts
31-Jan-17 13:30 34.310916 -118.985434 273 6508ft 113kts
31-Jan-17 13:31 34.315747 -119.022997 277 6508ft 113kts
31-Jan-17 13:32 34.321150 -119.060723 277 6509ft 114kts
31-Jan-17 13:33 34.326348 -119.098616 276 6512ft 114kts
31-Jan-17 13:34 34.331271 -119.134929 276 6594ft 113kts
31-Jan-17 13:35 34.336478 -119.173518 276 6595ft 114kts
31-Jan-17 13:36 34.341514 -119.210804 277 6597ft 115kts
31-Jan-17 13:37 34.346671 -119.249026 277 6598ft 115kts
31-Jan-17 13:38 34.351832 -119.287812 277 6553ft 116kts
31-Jan-17 13:39 34.356952 -119.325968 277 6554ft 115kts
31-Jan-17 13:40 34.361318 -119.358412 277 6524ft 118kts
31-Jan-17 13:41 34.366923 -119.399995 277 6127ft 128kts
31-Jan-17 13:42 34.372545 -119.441619 277 5624ft 124kts
31-Jan-17 13:43 34.378091 -119.482814 277 5053ft 123kts
31-Jan-17 13:44 34.383584 -119.523724 277 4355ft 123kts
31-Jan-17 13:45 34.389184 -119.565364 277 3496ft 130kts
31-Jan-17 13:46 34.395845 -119.607325 291 2497ft 127kts
31-Jan-17 13:47 34.408258 -119.647186 290 1511ft 125kts
31-Jan-17 13:48 34.418434 -119.679368 289 1419ft 112kts
31-Jan-17 13:49 34.429595 -119.714589 289 1417ft 112kts
31-Jan-17 13:50 34.440680 -119.749525 289 1251ft 103kts
31-Jan-17 13:51 34.443378 -119.781827 269 992ft 97kts
31-Jan-17 13:52 34.444650 -119.813497 270 903ft 89kts
31-Jan-17 13:53 34.444431 -119.835880 257 512ft 75kts
31-Jan-17 13:54 34.429174 -119.839883 165 14ft 42kts
31-Jan-17 13:55 34.426697 -119.838501 86 11ft 0kts
31-Jan-17 13:56 34.427292 -119.838531 348 12ft 12kts
31-Jan-17 13:57 34.431278 -119.837879 71 14ft 18kts
31-Jan-17 13:58 34.432725 -119.836386 150 14ft 0kts
31-Jan-17 13:59 34.432725 -119.836386 151 14ft 0kts
31-Jan-17 14:00 34.432725 -119.836386 151 14ft 0kts

Navigation Log

Ident Type
Flight plan parsing failed, navigation log unavailable